Storm Events Database

Event Details

Event Thunderstorm Wind
Magnitude 56 kts.
State NEBRASKA
County/Area DEUEL
WFO LBF
Begin Date 07/20/2009 15:09:00 MST-7
Begin Range 1
Begin Azimuth SE
Begin Location BIG SPGS
Begin Lat/Lon 41.06/-102.07
End Date 07/20/2009 15:09:00 MST-7
Deaths Direct/Indirect 0/0 (fatality details below, when available...)
Injuries Direct/Indirect 0/0
Property Damage 0.00K
Crop Damage 0.00K
Episode Narrative Storms developed in an unstable atmosphere along and ahead of a cold front as it progressed southeastward across western and north central Nebraska.
Event Narrative The cooperative observer measured the wind gusts on a Davis weather station.


All events for this episode:

Location County/Zone St. Date Time T.Z. Type Mag Dth Inj PrD CrD
Totals: 0 0 133.00K 100.00K
ASHBY GRANT CO. NE 07/20/2009 13:45 MST-7 Hail 2.50 in. 0 0 7.00K 0.00K
IRWIN CHERRY CO. NE 07/20/2009 14:00 CST-6 Hail 1.00 in. 0 0 0.00K 0.00K
IRWIN CHERRY CO. NE 07/20/2009 14:02 CST-6 Hail 1.00 in. 0 0 0.00K 0.00K
ARTHUR ARTHUR CO. NE 07/20/2009 14:07 MST-7 Hail 1.25 in. 0 0 2.00K 0.00K
ARTHUR ARTHUR CO. NE 07/20/2009 14:17 MST-7 Hail 1.75 in. 0 0 2.00K 0.00K
LEMOYNE KEITH CO. NE 07/20/2009 14:30 MST-7 Hail 2.50 in. 0 0 8.00K 0.00K
MERRIMAN CHERRY CO. NE 07/20/2009 14:40 CST-6 Hail 1.00 in. 0 0 4.00K 0.00K
LEMOYNE KEITH CO. NE 07/20/2009 14:45 MST-7 Hail 2.00 in. 0 0 8.00K 0.00K
LEMOYNE KEITH CO. NE 07/20/2009 14:50 MST-7 Thunderstorm Wind 52 kts. EG 0 0 0.00K 0.00K
LEMOYNE KEITH CO. NE 07/20/2009 14:50 MST-7 Hail 1.75 in. 0 0 5.00K 0.00K
LEMOYNE KEITH CO. NE 07/20/2009 14:55 MST-7 Hail 1.75 in. 0 0 5.00K 0.00K
LEMOYNE KEITH CO. NE 07/20/2009 14:57 MST-7 Hail 1.00 in. 0 0 0.00K 0.00K
BRANDON PERKINS CO. NE 07/20/2009 15:07 MST-7 Hail 0.88 in. 0 0 0.00K 0.00K
BIG SPGS DEUEL CO. NE 07/20/2009 15:09 MST-7 Thunderstorm Wind 56 kts. MG 0 0 0.00K 0.00K
GRANT PERKINS CO. NE 07/20/2009 15:15 MST-7 Hail 1.00 in. 0 0 0.00K 0.00K
MERRIMAN CHERRY CO. NE 07/20/2009 15:20 CST-6 Hail 1.00 in. 0 0 0.00K 0.00K
BROWNLEE CHERRY CO. NE 07/20/2009 15:23 CST-6 Hail 1.25 in. 0 0 2.00K 0.00K
WHITMAN GRANT CO. NE 07/20/2009 15:26 MST-7 Hail 1.00 in. 0 0 0.00K 0.00K
VENANGO PERKINS CO. NE 07/20/2009 15:46 MST-7 Hail 1.75 in. 0 0 8.00K 0.00K
VENANGO PERKINS CO. NE 07/20/2009 15:51 MST-7 Hail 1.00 in. 0 0 4.00K 10.00K
CHAMPION CHASE CO. NE 07/20/2009 16:05 MST-7 Hail 2.75 in. 0 0 70.00K 90.00K
ARTHUR ARTHUR CO. NE 07/20/2009 17:14 MST-7 Hail 1.75 in. 0 0 4.00K 0.00K
ARTHUR ARTHUR CO. NE 07/20/2009 17:24 MST-7 Hail 1.75 in. 0 0 2.00K 0.00K
ARTHUR ARTHUR CO. NE 07/20/2009 17:30 MST-7 Hail 1.75 in. 0 0 2.00K 0.00K
ARTHUR ARTHUR CO. NE 07/20/2009 17:35 MST-7 Hail 1.00 in. 0 0 0.00K 0.00K
OSHKOSH GARDEN CO. NE 07/20/2009 17:45 MST-7 Hail 1.00 in. 0 0 0.00K 0.00K
STUART HOLT CO. NE 07/20/2009 18:20 CST-6 Hail 1.00 in. 0 0 0.00K 0.00K
Totals: 0 0 133.00K 100.00K